KBWI/BWI METAR and TAF weather

Enter ICAO airport designator
Station Type Date Time Source
KBWI METAR 2019/08/22 08:54 UTC NOAA

KBWI 220854Z 25004KT 10SM BKN250 23/22 A2988 RMK AO2 SLP117 T02280217 56009


Station Type Date Time Source
KBWI Decoded METAR 2019/08/22 08:54 UTC NOAA

Station name not available
Aug 22, 2019 - 04:54 AM EDT / 2019.08.22 0854 UTC
Wind: from the WSW (250 degrees) at 5 MPH (4 KT):0
Visibility: 10 mile(s):0
Sky conditions: mostly cloudy
Temperature: 73.0 F (22.8 C)
Dew Point: 71.1 F (21.7 C)
Relative Humidity: 93%
Pressure (altimeter): 29.88 in. Hg (1011 hPa)
Pressure tendency: 0.03 inches (0.9 hPa) lower than three hours ago
ob: KBWI 220854Z 25004KT 10SM BKN250 23/22 A2988 RMK AO2 SLP117 T02280217 56009
cycle: 9

Station Type Date Time Source
KBWI TAF 2019/08/22 09:12 UTC NOAA

TAF
AMD KBWI 220908Z 2209/2312 VRB03KT P6SM BKN250
FM222000 23007KT P6SM VCTS SCT050CB
FM230200 26004KT P6SM BKN050
FM230300 27004KT P6SM BKN015
FM231000 34006KT P6SM BKN010

Example: see airport list